sensor_id;sensor_type;location;lat;lon;timestamp;P1;durP1;ratioP1;P2;durP2;ratioP2
33579;SDS011;19909;43.644;-79.438;2023-03-21T00:01:55;2.85;;;2.22;;
33579;SDS011;19909;43.644;-79.438;2023-03-21T00:04:22;3.75;;;2.22;;
33579;SDS011;19909;43.644;-79.438;2023-03-21T00:06:50;2.35;;;1.65;;
33579;SDS011;19909;43.644;-79.438;2023-03-21T00:09:17;2.50;;;1.80;;
33579;SDS011;19909;43.644;-79.438;2023-03-21T00:11:44;1.98;;;1.70;;
33579;SDS011;19909;43.644;-79.438;2023-03-21T00:14:10;2.28;;;1.60;;
33579;SDS011;19909;43.644;-79.438;2023-03-21T00:16:42;2.90;;;2.25;;
33579;SDS011;19909;43.644;-79.438;2023-03-21T00:19:10;2.75;;;1.85;;
33579;SDS011;19909;43.644;-79.438;2023-03-21T00:21:38;2.10;;;1.75;;
33579;SDS011;19909;43.644;-79.438;2023-03-21T00:24:07;2.00;;;1.70;;
33579;SDS011;19909;43.644;-79.438;2023-03-21T00:26:33;2.22;;;2.00;;
33579;SDS011;19909;43.644;-79.438;2023-03-21T00:29:00;2.40;;;1.80;;
33579;SDS011;19909;43.644;-79.438;2023-03-21T00:31:27;2.42;;;1.98;;
33579;SDS011;19909;43.644;-79.438;2023-03-21T00:33:53;1.45;;;1.20;;
33579;SDS011;19909;43.644;-79.438;2023-03-21T00:36:20;2.40;;;1.77;;
33579;SDS011;19909;43.644;-79.438;2023-03-21T00:38:46;1.77;;;1.33;;
33579;SDS011;19909;43.644;-79.438;2023-03-21T00:41:12;2.55;;;1.67;;
33579;SDS011;19909;43.644;-79.438;2023-03-21T00:43:38;1.58;;;1.20;;
33579;SDS011;19909;43.644;-79.438;2023-03-21T00:46:05;2.38;;;1.45;;
33579;SDS011;19909;43.644;-79.438;2023-03-21T00:48:31;2.03;;;1.50;;
33579;SDS011;19909;43.644;-79.438;2023-03-21T00:50:58;1.70;;;1.20;;
33579;SDS011;19909;43.644;-79.438;2023-03-21T00:53:25;1.70;;;1.23;;
33579;SDS011;19909;43.644;-79.438;2023-03-21T00:55:52;2.63;;;1.48;;
33579;SDS011;19909;43.644;-79.438;2023-03-21T00:58:18;1.98;;;1.40;;
33579;SDS011;19909;43.644;-79.438;2023-03-21T01:00:45;1.70;;;1.50;;
33579;SDS011;19909;43.644;-79.438;2023-03-21T01:03:12;2.10;;;1.70;;
33579;SDS011;19909;43.644;-79.438;2023-03-21T01:05:40;1.75;;;1.27;;
33579;SDS011;19909;43.644;-79.438;2023-03-21T01:08:29;2.45;;;1.20;;
33579;SDS011;19909;43.644;-79.438;2023-03-21T01:10:59;1.55;;;1.20;;
33579;SDS011;19909;43.644;-79.438;2023-03-21T01:13:31;1.70;;;1.30;;
33579;SDS011;19909;43.644;-79.438;2023-03-21T01:15:57;2.45;;;1.50;;
33579;SDS011;19909;43.644;-79.438;2023-03-21T01:18:25;2.67;;;1.52;;
33579;SDS011;19909;43.644;-79.438;2023-03-21T01:20:54;1.40;;;1.02;;
33579;SDS011;19909;43.644;-79.438;2023-03-21T01:23:22;2.65;;;1.40;;
33579;SDS011;19909;43.644;-79.438;2023-03-21T01:25:49;1.85;;;1.40;;
33579;SDS011;19909;43.644;-79.438;2023-03-21T01:28:16;1.30;;;1.15;;
33579;SDS011;19909;43.644;-79.438;2023-03-21T01:30:46;1.50;;;1.30;;
33579;SDS011;19909;43.644;-79.438;2023-03-21T01:33:14;1.88;;;1.40;;
33579;SDS011;19909;43.644;-79.438;2023-03-21T01:35:40;2.45;;;1.30;;
33579;SDS011;19909;43.644;-79.438;2023-03-21T01:38:07;1.55;;;1.20;;
33579;SDS011;19909;43.644;-79.438;2023-03-21T01:40:36;1.20;;;1.00;;
33579;SDS011;19909;43.644;-79.438;2023-03-21T01:43:03;1.58;;;0.98;;
33579;SDS011;19909;43.644;-79.438;2023-03-21T01:48:35;1.50;;;1.00;;
33579;SDS011;19909;43.644;-79.438;2023-03-21T01:51:06;2.53;;;1.30;;
33579;SDS011;19909;43.644;-79.438;2023-03-21T01:53:35;1.88;;;1.35;;
33579;SDS011;19909;43.644;-79.438;2023-03-21T01:56:25;1.48;;;1.00;;
33579;SDS011;19909;43.644;-79.438;2023-03-21T01:59:00;1.17;;;1.08;;
33579;SDS011;19909;43.644;-79.438;2023-03-21T02:01:32;2.00;;;1.40;;
33579;SDS011;19909;43.644;-79.438;2023-03-21T02:03:59;1.40;;;0.98;;
33579;SDS011;19909;43.644;-79.438;2023-03-21T02:09:04;2.30;;;1.27;;
33579;SDS011;19909;43.644;-79.438;2023-03-21T02:11:34;1.15;;;1.05;;
33579;SDS011;19909;43.644;-79.438;2023-03-21T02:14:03;1.63;;;1.10;;
33579;SDS011;19909;43.644;-79.438;2023-03-21T02:17:03;1.05;;;0.68;;
33579;SDS011;19909;43.644;-79.438;2023-03-21T02:19:42;1.23;;;0.88;;
33579;SDS011;19909;43.644;-79.438;2023-03-21T02:25:06;1.80;;;1.23;;
33579;SDS011;19909;43.644;-79.438;2023-03-21T02:27:41;1.40;;;1.00;;
33579;SDS011;19909;43.644;-79.438;2023-03-21T02:33:27;2.28;;;0.95;;
33579;SDS011;19909;43.644;-79.438;2023-03-21T02:39:27;1.52;;;1.00;;
33579;SDS011;19909;43.644;-79.438;2023-03-21T02:45:02;1.70;;;1.00;;
33579;SDS011;19909;43.644;-79.438;2023-03-21T02:47:42;1.30;;;0.88;;
33579;SDS011;19909;43.644;-79.438;2023-03-21T02:52:56;1.75;;;1.02;;
33579;SDS011;19909;43.644;-79.438;2023-03-21T02:55:25;1.42;;;0.80;;
33579;SDS011;19909;43.644;-79.438;2023-03-21T02:57:55;2.05;;;0.90;;
33579;SDS011;19909;43.644;-79.438;2023-03-21T03:00:32;1.27;;;1.17;;
33579;SDS011;19909;43.644;-79.438;2023-03-21T03:02:59;1.13;;;0.95;;
33579;SDS011;19909;43.644;-79.438;2023-03-21T03:05:29;1.15;;;0.77;;
33579;SDS011;19909;43.644;-79.438;2023-03-21T03:18:57;1.45;;;1.00;;
33579;SDS011;19909;43.644;-79.438;2023-03-21T03:21:27;1.40;;;0.90;;
33579;SDS011;19909;43.644;-79.438;2023-03-21T03:27:12;1.65;;;0.95;;
33579;SDS011;19909;43.644;-79.438;2023-03-21T03:29:53;1.47;;;1.03;;
33579;SDS011;19909;43.644;-79.438;2023-03-21T03:32:30;1.48;;;0.88;;
33579;SDS011;19909;43.644;-79.438;2023-03-21T03:35:19;1.60;;;0.82;;
33579;SDS011;19909;43.644;-79.438;2023-03-21T03:37:53;1.23;;;0.88;;
33579;SDS011;19909;43.644;-79.438;2023-03-21T03:40:24;0.88;;;0.70;;
33579;SDS011;19909;43.644;-79.438;2023-03-21T03:42:56;2.08;;;0.77;;
33579;SDS011;19909;43.644;-79.438;2023-03-21T03:45:57;1.58;;;0.70;;
33579;SDS011;19909;43.644;-79.438;2023-03-21T03:48:25;1.38;;;0.90;;
33579;SDS011;19909;43.644;-79.438;2023-03-21T03:51:15;1.05;;;0.70;;
33579;SDS011;19909;43.644;-79.438;2023-03-21T03:56:17;1.58;;;0.60;;
33579;SDS011;19909;43.644;-79.438;2023-03-21T03:58:44;1.00;;;0.73;;
33579;SDS011;19909;43.644;-79.438;2023-03-21T04:01:10;1.52;;;0.65;;
33579;SDS011;19909;43.644;-79.438;2023-03-21T04:03:37;2.28;;;1.05;;
33579;SDS011;19909;43.644;-79.438;2023-03-21T04:06:06;1.15;;;0.77;;
33579;SDS011;19909;43.644;-79.438;2023-03-21T04:08:33;0.75;;;0.65;;
33579;SDS011;19909;43.644;-79.438;2023-03-21T04:11:01;1.05;;;0.75;;
33579;SDS011;19909;43.644;-79.438;2023-03-21T04:13:28;1.33;;;0.88;;
33579;SDS011;19909;43.644;-79.438;2023-03-21T04:15:54;0.70;;;0.50;;
33579;SDS011;19909;43.644;-79.438;2023-03-21T04:18:21;1.30;;;0.90;;
33579;SDS011;19909;43.644;-79.438;2023-03-21T04:20:48;1.25;;;0.88;;
33579;SDS011;19909;43.644;-79.438;2023-03-21T04:23:16;0.95;;;0.77;;
33579;SDS011;19909;43.644;-79.438;2023-03-21T04:25:43;1.10;;;0.68;;
33579;SDS011;19909;43.644;-79.438;2023-03-21T04:28:10;1.17;;;0.65;;
33579;SDS011;19909;43.644;-79.438;2023-03-21T04:30:37;0.90;;;0.63;;
33579;SDS011;19909;43.644;-79.438;2023-03-21T04:33:05;1.40;;;0.73;;
33579;SDS011;19909;43.644;-79.438;2023-03-21T04:35:31;0.93;;;0.77;;
33579;SDS011;19909;43.644;-79.438;2023-03-21T04:38:00;1.10;;;0.50;;
33579;SDS011;19909;43.644;-79.438;2023-03-21T04:40:26;0.57;;;0.50;;
33579;SDS011;19909;43.644;-79.438;2023-03-21T04:42:52;1.55;;;0.70;;
33579;SDS011;19909;43.644;-79.438;2023-03-21T04:45:19;1.55;;;0.90;;
33579;SDS011;19909;43.644;-79.438;2023-03-21T04:47:45;1.20;;;0.80;;
33579;SDS011;19909;43.644;-79.438;2023-03-21T04:50:11;1.65;;;0.80;;
33579;SDS011;19909;43.644;-79.438;2023-03-21T04:52:37;1.23;;;0.70;;
33579;SDS011;19909;43.644;-79.438;2023-03-21T04:55:04;0.85;;;0.65;;
33579;SDS011;19909;43.644;-79.438;2023-03-21T04:57:34;1.00;;;0.50;;
33579;SDS011;19909;43.644;-79.438;2023-03-21T05:00:04;0.80;;;0.57;;
33579;SDS011;19909;43.644;-79.438;2023-03-21T05:02:40;1.30;;;0.50;;
33579;SDS011;19909;43.644;-79.438;2023-03-21T05:05:07;0.68;;;0.60;;
33579;SDS011;19909;43.644;-79.438;2023-03-21T05:07:39;1.08;;;0.65;;
33579;SDS011;19909;43.644;-79.438;2023-03-21T05:10:06;0.82;;;0.57;;
33579;SDS011;19909;43.644;-79.438;2023-03-21T05:12:34;2.25;;;1.02;;
33579;SDS011;19909;43.644;-79.438;2023-03-21T05:15:00;2.28;;;0.70;;
33579;SDS011;19909;43.644;-79.438;2023-03-21T05:17:27;1.15;;;0.68;;
33579;SDS011;19909;43.644;-79.438;2023-03-21T05:19:53;0.80;;;0.50;;
33579;SDS011;19909;43.644;-79.438;2023-03-21T05:22:21;0.75;;;0.60;;
33579;SDS011;19909;43.644;-79.438;2023-03-21T05:24:49;1.00;;;0.60;;
33579;SDS011;19909;43.644;-79.438;2023-03-21T05:27:16;1.02;;;0.55;;
33579;SDS011;19909;43.644;-79.438;2023-03-21T05:30:00;0.90;;;0.50;;
33579;SDS011;19909;43.644;-79.438;2023-03-21T05:32:34;1.08;;;0.70;;
33579;SDS011;19909;43.644;-79.438;2023-03-21T05:35:00;0.60;;;0.50;;
33579;SDS011;19909;43.644;-79.438;2023-03-21T05:37:26;1.25;;;0.88;;
33579;SDS011;19909;43.644;-79.438;2023-03-21T05:39:53;0.82;;;0.50;;
33579;SDS011;19909;43.644;-79.438;2023-03-21T05:42:19;0.90;;;0.70;;
33579;SDS011;19909;43.644;-79.438;2023-03-21T05:44:46;1.27;;;0.68;;
33579;SDS011;19909;43.644;-79.438;2023-03-21T05:47:14;0.80;;;0.63;;
33579;SDS011;19909;43.644;-79.438;2023-03-21T05:49:41;0.73;;;0.60;;
33579;SDS011;19909;43.644;-79.438;2023-03-21T05:52:08;1.88;;;0.50;;
33579;SDS011;19909;43.644;-79.438;2023-03-21T05:54:34;0.60;;;0.50;;
33579;SDS011;19909;43.644;-79.438;2023-03-21T05:57:02;0.88;;;0.70;;
33579;SDS011;19909;43.644;-79.438;2023-03-21T05:59:29;1.23;;;0.80;;
33579;SDS011;19909;43.644;-79.438;2023-03-21T06:01:55;0.65;;;0.47;;
33579;SDS011;19909;43.644;-79.438;2023-03-21T06:04:21;1.52;;;0.80;;
33579;SDS011;19909;43.644;-79.438;2023-03-21T06:06:47;0.88;;;0.60;;
33579;SDS011;19909;43.644;-79.438;2023-03-21T06:09:15;1.67;;;0.93;;
33579;SDS011;19909;43.644;-79.438;2023-03-21T06:11:43;1.00;;;0.70;;
33579;SDS011;19909;43.644;-79.438;2023-03-21T06:14:11;1.42;;;0.43;;
33579;SDS011;19909;43.644;-79.438;2023-03-21T06:16:37;0.57;;;0.40;;
33579;SDS011;19909;43.644;-79.438;2023-03-21T06:19:03;1.20;;;0.45;;
33579;SDS011;19909;43.644;-79.438;2023-03-21T06:21:29;1.00;;;0.50;;
33579;SDS011;19909;43.644;-79.438;2023-03-21T06:23:55;1.10;;;0.70;;
33579;SDS011;19909;43.644;-79.438;2023-03-21T06:26:21;1.02;;;0.70;;
33579;SDS011;19909;43.644;-79.438;2023-03-21T06:28:48;1.05;;;0.70;;
33579;SDS011;19909;43.644;-79.438;2023-03-21T06:31:15;0.88;;;0.55;;
33579;SDS011;19909;43.644;-79.438;2023-03-21T06:33:41;1.20;;;0.73;;
33579;SDS011;19909;43.644;-79.438;2023-03-21T06:36:08;0.80;;;0.50;;
33579;SDS011;19909;43.644;-79.438;2023-03-21T06:38:35;1.63;;;0.75;;
33579;SDS011;19909;43.644;-79.438;2023-03-21T06:41:05;1.27;;;0.80;;
33579;SDS011;19909;43.644;-79.438;2023-03-21T06:43:32;1.08;;;0.63;;
33579;SDS011;19909;43.644;-79.438;2023-03-21T06:45:58;3.63;;;0.70;;
33579;SDS011;19909;43.644;-79.438;2023-03-21T06:48:25;2.08;;;0.63;;
33579;SDS011;19909;43.644;-79.438;2023-03-21T06:50:52;1.00;;;0.57;;
33579;SDS011;19909;43.644;-79.438;2023-03-21T06:53:19;1.48;;;0.60;;
33579;SDS011;19909;43.644;-79.438;2023-03-21T06:55:52;1.10;;;0.65;;
33579;SDS011;19909;43.644;-79.438;2023-03-21T06:58:19;0.60;;;0.40;;
33579;SDS011;19909;43.644;-79.438;2023-03-21T07:00:46;0.85;;;0.60;;
33579;SDS011;19909;43.644;-79.438;2023-03-21T07:03:12;1.23;;;0.70;;
33579;SDS011;19909;43.644;-79.438;2023-03-21T07:05:39;0.98;;;0.50;;
33579;SDS011;19909;43.644;-79.438;2023-03-21T07:08:06;0.57;;;0.55;;
33579;SDS011;19909;43.644;-79.438;2023-03-21T07:10:38;0.85;;;0.68;;
33579;SDS011;19909;43.644;-79.438;2023-03-21T07:13:07;0.80;;;0.80;;
33579;SDS011;19909;43.644;-79.438;2023-03-21T07:15:33;1.25;;;0.90;;
33579;SDS011;19909;43.644;-79.438;2023-03-21T07:18:02;1.00;;;0.63;;
33579;SDS011;19909;43.644;-79.438;2023-03-21T07:20:30;1.23;;;0.60;;
33579;SDS011;19909;43.644;-79.438;2023-03-21T07:22:56;0.95;;;0.80;;
33579;SDS011;19909;43.644;-79.438;2023-03-21T07:25:23;0.93;;;0.68;;
33579;SDS011;19909;43.644;-79.438;2023-03-21T07:27:49;1.38;;;0.65;;
33579;SDS011;19909;43.644;-79.438;2023-03-21T07:30:15;0.80;;;0.60;;
33579;SDS011;19909;43.644;-79.438;2023-03-21T07:32:42;1.08;;;0.70;;
33579;SDS011;19909;43.644;-79.438;2023-03-21T07:35:11;1.05;;;0.60;;
33579;SDS011;19909;43.644;-79.438;2023-03-21T07:37:38;1.05;;;0.75;;
33579;SDS011;19909;43.644;-79.438;2023-03-21T07:40:05;0.90;;;0.57;;
33579;SDS011;19909;43.644;-79.438;2023-03-21T07:42:35;0.82;;;0.70;;
33579;SDS011;19909;43.644;-79.438;2023-03-21T07:45:02;0.70;;;0.63;;
33579;SDS011;19909;43.644;-79.438;2023-03-21T07:47:29;1.92;;;0.63;;
33579;SDS011;19909;43.644;-79.438;2023-03-21T07:49:56;1.10;;;0.73;;
33579;SDS011;19909;43.644;-79.438;2023-03-21T07:52:22;0.70;;;0.50;;
33579;SDS011;19909;43.644;-79.438;2023-03-21T07:54:49;1.52;;;0.60;;
33579;SDS011;19909;43.644;-79.438;2023-03-21T07:57:15;0.95;;;0.60;;
33579;SDS011;19909;43.644;-79.438;2023-03-21T07:59:42;0.85;;;0.60;;
33579;SDS011;19909;43.644;-79.438;2023-03-21T08:02:12;1.20;;;0.85;;
33579;SDS011;19909;43.644;-79.438;2023-03-21T08:04:40;1.58;;;0.63;;
33579;SDS011;19909;43.644;-79.438;2023-03-21T08:07:06;1.25;;;0.75;;
33579;SDS011;19909;43.644;-79.438;2023-03-21T08:09:33;0.60;;;0.50;;
33579;SDS011;19909;43.644;-79.438;2023-03-21T08:12:00;1.60;;;0.70;;
33579;SDS011;19909;43.644;-79.438;2023-03-21T08:14:27;1.60;;;0.80;;
33579;SDS011;19909;43.644;-79.438;2023-03-21T08:16:53;1.20;;;0.68;;
33579;SDS011;19909;43.644;-79.438;2023-03-21T08:19:19;1.92;;;0.90;;
33579;SDS011;19909;43.644;-79.438;2023-03-21T08:21:49;2.55;;;0.80;;
33579;SDS011;19909;43.644;-79.438;2023-03-21T08:24:16;0.80;;;0.68;;
33579;SDS011;19909;43.644;-79.438;2023-03-21T08:26:42;0.85;;;0.70;;
33579;SDS011;19909;43.644;-79.438;2023-03-21T08:29:10;1.65;;;0.98;;
33579;SDS011;19909;43.644;-79.438;2023-03-21T08:31:38;1.27;;;0.63;;
33579;SDS011;19909;43.644;-79.438;2023-03-21T08:34:05;1.05;;;0.77;;
33579;SDS011;19909;43.644;-79.438;2023-03-21T08:36:31;1.23;;;0.75;;
33579;SDS011;19909;43.644;-79.438;2023-03-21T08:39:01;0.73;;;0.50;;
33579;SDS011;19909;43.644;-79.438;2023-03-21T08:41:34;0.85;;;0.60;;
33579;SDS011;19909;43.644;-79.438;2023-03-21T08:44:03;1.58;;;0.73;;
33579;SDS011;19909;43.644;-79.438;2023-03-21T08:46:31;0.85;;;0.60;;
33579;SDS011;19909;43.644;-79.438;2023-03-21T08:48:57;2.25;;;0.70;;
33579;SDS011;19909;43.644;-79.438;2023-03-21T08:51:23;1.40;;;0.63;;
33579;SDS011;19909;43.644;-79.438;2023-03-21T08:53:49;0.60;;;0.50;;
33579;SDS011;19909;43.644;-79.438;2023-03-21T08:56:16;0.80;;;0.60;;
33579;SDS011;19909;43.644;-79.438;2023-03-21T08:58:43;0.80;;;0.60;;
33579;SDS011;19909;43.644;-79.438;2023-03-21T09:01:09;1.00;;;0.73;;
33579;SDS011;19909;43.644;-79.438;2023-03-21T09:03:40;0.93;;;0.82;;
33579;SDS011;19909;43.644;-79.438;2023-03-21T09:06:07;0.82;;;0.52;;
33579;SDS011;19909;43.644;-79.438;2023-03-21T09:08:38;0.75;;;0.60;;
33579;SDS011;19909;43.644;-79.438;2023-03-21T09:11:10;0.47;;;0.45;;
33579;SDS011;19909;43.644;-79.438;2023-03-21T09:13:36;1.15;;;0.70;;
33579;SDS011;19909;43.644;-79.438;2023-03-21T09:16:02;0.88;;;0.60;;
33579;SDS011;19909;43.644;-79.438;2023-03-21T09:18:29;1.52;;;0.70;;
33579;SDS011;19909;43.644;-79.438;2023-03-21T09:21:15;1.13;;;0.70;;
33579;SDS011;19909;43.644;-79.438;2023-03-21T09:23:42;1.13;;;0.57;;
33579;SDS011;19909;43.644;-79.438;2023-03-21T09:26:09;0.90;;;0.60;;
33579;SDS011;19909;43.644;-79.438;2023-03-21T09:28:36;0.80;;;0.63;;
33579;SDS011;19909;43.644;-79.438;2023-03-21T09:31:03;1.58;;;0.80;;
33579;SDS011;19909;43.644;-79.438;2023-03-21T09:33:30;1.10;;;0.57;;
33579;SDS011;19909;43.644;-79.438;2023-03-21T09:35:57;1.60;;;0.85;;
33579;SDS011;19909;43.644;-79.438;2023-03-21T09:38:25;1.02;;;0.63;;
33579;SDS011;19909;43.644;-79.438;2023-03-21T09:41:07;1.10;;;0.50;;
33579;SDS011;19909;43.644;-79.438;2023-03-21T09:47:20;1.30;;;0.70;;
33579;SDS011;19909;43.644;-79.438;2023-03-21T09:49:52;1.52;;;0.60;;
33579;SDS011;19909;43.644;-79.438;2023-03-21T09:52:31;1.88;;;0.90;;
33579;SDS011;19909;43.644;-79.438;2023-03-21T09:55:14;0.80;;;0.60;;
33579;SDS011;19909;43.644;-79.438;2023-03-21T09:57:44;0.60;;;0.60;;
33579;SDS011;19909;43.644;-79.438;2023-03-21T10:00:17;0.68;;;0.47;;
33579;SDS011;19909;43.644;-79.438;2023-03-21T10:02:51;1.10;;;0.68;;
33579;SDS011;19909;43.644;-79.438;2023-03-21T10:05:21;0.88;;;0.50;;
33579;SDS011;19909;43.644;-79.438;2023-03-21T10:07:57;1.20;;;0.60;;
33579;SDS011;19909;43.644;-79.438;2023-03-21T10:10:48;0.88;;;0.43;;
33579;SDS011;19909;43.644;-79.438;2023-03-21T10:13:38;1.73;;;0.70;;
33579;SDS011;19909;43.644;-79.438;2023-03-21T10:16:14;0.95;;;0.70;;
33579;SDS011;19909;43.644;-79.438;2023-03-21T10:18:44;1.10;;;0.75;;
33579;SDS011;19909;43.644;-79.438;2023-03-21T10:21:16;0.75;;;0.70;;
33579;SDS011;19909;43.644;-79.438;2023-03-21T10:23:50;0.85;;;0.50;;
33579;SDS011;19909;43.644;-79.438;2023-03-21T10:26:18;0.90;;;0.70;;
33579;SDS011;19909;43.644;-79.438;2023-03-21T10:28:46;0.98;;;0.60;;
33579;SDS011;19909;43.644;-79.438;2023-03-21T10:31:15;1.17;;;0.80;;
33579;SDS011;19909;43.644;-79.438;2023-03-21T10:33:45;0.90;;;0.70;;
33579;SDS011;19909;43.644;-79.438;2023-03-21T10:36:15;1.42;;;0.90;;
33579;SDS011;19909;43.644;-79.438;2023-03-21T10:38:50;1.13;;;0.70;;
33579;SDS011;19909;43.644;-79.438;2023-03-21T10:41:19;0.93;;;0.80;;
33579;SDS011;19909;43.644;-79.438;2023-03-21T10:44:01;1.20;;;0.88;;
33579;SDS011;19909;43.644;-79.438;2023-03-21T10:46:48;1.85;;;0.77;;
33579;SDS011;19909;43.644;-79.438;2023-03-21T10:49:23;1.25;;;0.98;;
33579;SDS011;19909;43.644;-79.438;2023-03-21T10:51:52;1.65;;;0.70;;
33579;SDS011;19909;43.644;-79.438;2023-03-21T10:54:21;1.23;;;0.70;;
33579;SDS011;19909;43.644;-79.438;2023-03-21T10:57:09;0.80;;;0.53;;
33579;SDS011;19909;43.644;-79.438;2023-03-21T10:59:57;1.15;;;0.90;;
33579;SDS011;19909;43.644;-79.438;2023-03-21T11:02:30;0.70;;;0.60;;
33579;SDS011;19909;43.644;-79.438;2023-03-21T11:05:03;1.13;;;0.65;;
33579;SDS011;19909;43.644;-79.438;2023-03-21T11:07:32;1.25;;;0.68;;
33579;SDS011;19909;43.644;-79.438;2023-03-21T11:10:11;1.10;;;0.60;;
33579;SDS011;19909;43.644;-79.438;2023-03-21T11:12:45;1.70;;;0.88;;
33579;SDS011;19909;43.644;-79.438;2023-03-21T11:15:31;1.85;;;0.80;;
33579;SDS011;19909;43.644;-79.438;2023-03-21T11:18:29;2.30;;;1.20;;
33579;SDS011;19909;43.644;-79.438;2023-03-21T11:21:03;1.23;;;0.80;;
33579;SDS011;19909;43.644;-79.438;2023-03-21T11:23:33;1.08;;;0.70;;
33579;SDS011;19909;43.644;-79.438;2023-03-21T11:26:02;1.80;;;0.88;;
33579;SDS011;19909;43.644;-79.438;2023-03-21T11:28:42;0.95;;;0.60;;
33579;SDS011;19909;43.644;-79.438;2023-03-21T11:31:10;2.25;;;0.93;;
33579;SDS011;19909;43.644;-79.438;2023-03-21T11:33:38;3.53;;;0.90;;
33579;SDS011;19909;43.644;-79.438;2023-03-21T11:39:30;0.93;;;0.65;;
33579;SDS011;19909;43.644;-79.438;2023-03-21T11:41:35;1.13;;;0.77;;
33579;SDS011;19909;43.644;-79.438;2023-03-21T11:44:05;1.15;;;0.80;;
33579;SDS011;19909;43.644;-79.438;2023-03-21T11:46:47;1.30;;;1.00;;
33579;SDS011;19909;43.644;-79.438;2023-03-21T11:49:13;0.82;;;0.73;;
33579;SDS011;19909;43.644;-79.438;2023-03-21T11:54:25;1.27;;;1.02;;
33579;SDS011;19909;43.644;-79.438;2023-03-21T12:05:51;1.48;;;1.02;;
33579;SDS011;19909;43.644;-79.438;2023-03-21T12:10:55;1.30;;;0.70;;
33579;SDS011;19909;43.644;-79.438;2023-03-21T12:14:09;1.95;;;0.80;;
33579;SDS011;19909;43.644;-79.438;2023-03-21T12:24:40;1.25;;;0.70;;
33579;SDS011;19909;43.644;-79.438;2023-03-21T12:33:12;1.50;;;0.90;;
33579;SDS011;19909;43.644;-79.438;2023-03-21T12:36:16;1.52;;;0.68;;
33579;SDS011;19909;43.644;-79.438;2023-03-21T12:44:40;1.20;;;0.90;;
33579;SDS011;19909;43.644;-79.438;2023-03-21T12:47:14;2.75;;;0.80;;
33579;SDS011;19909;43.644;-79.438;2023-03-21T12:50:02;1.10;;;0.98;;
33579;SDS011;19909;43.644;-79.438;2023-03-21T12:52:53;1.15;;;0.82;;
33579;SDS011;19909;43.644;-79.438;2023-03-21T12:55:20;0.88;;;0.65;;
33579;SDS011;19909;43.644;-79.438;2023-03-21T12:57:54;1.08;;;0.77;;
33579;SDS011;19909;43.644;-79.438;2023-03-21T13:03:36;1.38;;;0.90;;
33579;SDS011;19909;43.644;-79.438;2023-03-21T13:05:58;2.05;;;0.80;;
33579;SDS011;19909;43.644;-79.438;2023-03-21T13:08:34;1.00;;;0.73;;
33579;SDS011;19909;43.644;-79.438;2023-03-21T13:11:14;1.15;;;0.85;;
33579;SDS011;19909;43.644;-79.438;2023-03-21T13:13:47;2.43;;;1.23;;
33579;SDS011;19909;43.644;-79.438;2023-03-21T13:17:05;1.27;;;0.82;;
33579;SDS011;19909;43.644;-79.438;2023-03-21T13:19:49;2.47;;;1.10;;
33579;SDS011;19909;43.644;-79.438;2023-03-21T13:25:05;1.90;;;1.10;;
33579;SDS011;19909;43.644;-79.438;2023-03-21T13:27:46;3.15;;;1.42;;
33579;SDS011;19909;43.644;-79.438;2023-03-21T13:30:37;2.45;;;1.67;;
33579;SDS011;19909;43.644;-79.438;2023-03-21T13:33:08;3.10;;;1.85;;
33579;SDS011;19909;43.644;-79.438;2023-03-21T13:35:42;2.90;;;1.63;;
33579;SDS011;19909;43.644;-79.438;2023-03-21T13:38:14;3.55;;;1.55;;
33579;SDS011;19909;43.644;-79.438;2023-03-21T13:45:56;3.30;;;2.03;;
33579;SDS011;19909;43.644;-79.438;2023-03-21T13:54:03;2.83;;;1.77;;
33579;SDS011;19909;43.644;-79.438;2023-03-21T14:02:21;2.60;;;1.75;;
33579;SDS011;19909;43.644;-79.438;2023-03-21T14:05:02;2.05;;;1.58;;
33579;SDS011;19909;43.644;-79.438;2023-03-21T14:07:43;2.38;;;1.40;;
33579;SDS011;19909;43.644;-79.438;2023-03-21T14:12:51;2.35;;;1.50;;
33579;SDS011;19909;43.644;-79.438;2023-03-21T14:15:19;2.25;;;1.60;;
33579;SDS011;19909;43.644;-79.438;2023-03-21T14:18:07;2.92;;;1.52;;
33579;SDS011;19909;43.644;-79.438;2023-03-21T14:20:39;2.93;;;1.53;;
33579;SDS011;19909;43.644;-79.438;2023-03-21T14:23:07;2.22;;;1.45;;
33579;SDS011;19909;43.644;-79.438;2023-03-21T14:25:38;1.60;;;1.30;;
33579;SDS011;19909;43.644;-79.438;2023-03-21T14:28:12;3.30;;;1.80;;
33579;SDS011;19909;43.644;-79.438;2023-03-21T14:30:49;2.03;;;1.25;;
33579;SDS011;19909;43.644;-79.438;2023-03-21T14:33:38;2.50;;;1.67;;
33579;SDS011;19909;43.644;-79.438;2023-03-21T14:36:12;2.78;;;1.73;;
33579;SDS011;19909;43.644;-79.438;2023-03-21T14:38:41;1.50;;;1.00;;
33579;SDS011;19909;43.644;-79.438;2023-03-21T14:41:22;2.38;;;1.27;;
33579;SDS011;19909;43.644;-79.438;2023-03-21T14:43:59;2.03;;;1.45;;
33579;SDS011;19909;43.644;-79.438;2023-03-21T14:46:41;2.17;;;1.50;;
33579;SDS011;19909;43.644;-79.438;2023-03-21T14:49:12;1.85;;;1.23;;
33579;SDS011;19909;43.644;-79.438;2023-03-21T14:52:10;2.00;;;0.98;;
33579;SDS011;19909;43.644;-79.438;2023-03-21T14:54:43;1.92;;;1.23;;
33579;SDS011;19909;43.644;-79.438;2023-03-21T14:57:16;1.98;;;1.48;;
33579;SDS011;19909;43.644;-79.438;2023-03-21T14:59:53;1.55;;;1.23;;
33579;SDS011;19909;43.644;-79.438;2023-03-21T15:02:27;1.60;;;1.20;;
33579;SDS011;19909;43.644;-79.438;2023-03-21T15:04:57;2.47;;;1.70;;
33579;SDS011;19909;43.644;-79.438;2023-03-21T15:07:32;1.98;;;1.20;;
33579;SDS011;19909;43.644;-79.438;2023-03-21T15:10:01;1.75;;;1.13;;
33579;SDS011;19909;43.644;-79.438;2023-03-21T15:12:31;1.92;;;1.40;;
33579;SDS011;19909;43.644;-79.438;2023-03-21T15:14:58;2.45;;;1.27;;
33579;SDS011;19909;43.644;-79.438;2023-03-21T15:17:25;1.42;;;1.08;;
33579;SDS011;19909;43.644;-79.438;2023-03-21T15:19:53;1.45;;;1.13;;
33579;SDS011;19909;43.644;-79.438;2023-03-21T15:22:41;1.52;;;1.27;;
33579;SDS011;19909;43.644;-79.438;2023-03-21T15:25:10;1.73;;;1.25;;
33579;SDS011;19909;43.644;-79.438;2023-03-21T15:27:41;1.48;;;1.00;;
33579;SDS011;19909;43.644;-79.438;2023-03-21T15:30:17;1.30;;;1.10;;
33579;SDS011;19909;43.644;-79.438;2023-03-21T15:32:48;1.95;;;1.35;;
33579;SDS011;19909;43.644;-79.438;2023-03-21T15:35:16;3.28;;;1.77;;
33579;SDS011;19909;43.644;-79.438;2023-03-21T15:37:57;1.60;;;1.15;;
33579;SDS011;19909;43.644;-79.438;2023-03-21T15:40:25;1.92;;;1.15;;
33579;SDS011;19909;43.644;-79.438;2023-03-21T15:43:05;1.33;;;0.95;;
33579;SDS011;19909;43.644;-79.438;2023-03-21T15:45:44;2.88;;;1.40;;
33579;SDS011;19909;43.644;-79.438;2023-03-21T15:48:17;2.15;;;1.52;;
33579;SDS011;19909;43.644;-79.438;2023-03-21T15:51:00;1.73;;;0.90;;
33579;SDS011;19909;43.644;-79.438;2023-03-21T15:53:30;1.50;;;1.10;;
33579;SDS011;19909;43.644;-79.438;2023-03-21T15:55:58;1.67;;;1.23;;
33579;SDS011;19909;43.644;-79.438;2023-03-21T15:58:31;1.58;;;1.20;;
33579;SDS011;19909;43.644;-79.438;2023-03-21T16:01:09;1.42;;;0.88;;
33579;SDS011;19909;43.644;-79.438;2023-03-21T16:03:43;2.88;;;1.20;;
33579;SDS011;19909;43.644;-79.438;2023-03-21T16:11:22;4.07;;;1.30;;
33579;SDS011;19909;43.644;-79.438;2023-03-21T16:13:50;1.45;;;0.95;;
33579;SDS011;19909;43.644;-79.438;2023-03-21T16:16:24;1.63;;;1.48;;
33579;SDS011;19909;43.644;-79.438;2023-03-21T16:18:53;2.60;;;1.00;;
33579;SDS011;19909;43.644;-79.438;2023-03-21T16:21:21;1.55;;;1.17;;
33579;SDS011;19909;43.644;-79.438;2023-03-21T16:23:50;1.30;;;1.20;;
33579;SDS011;19909;43.644;-79.438;2023-03-21T16:26:20;1.30;;;1.00;;
33579;SDS011;19909;43.644;-79.438;2023-03-21T16:28:51;1.45;;;1.20;;
33579;SDS011;19909;43.644;-79.438;2023-03-21T16:31:19;1.48;;;1.10;;
33579;SDS011;19909;43.644;-79.438;2023-03-21T16:33:47;1.70;;;0.98;;